createdAt,value
2022-09-10T00:02:20.463Z,100.40
2022-09-10T00:04:51.215Z,109.43
2022-09-10T00:07:20.486Z,109.82
2022-09-10T00:09:49.733Z,98.75
2022-09-10T00:12:20.662Z,110.57
2022-09-10T00:14:51.385Z,105.75
2022-09-10T00:17:20.665Z,109.15
2022-09-10T00:19:49.885Z,110.10
2022-09-10T00:22:19.302Z,103.03
2022-09-10T00:24:48.574Z,98.13
2022-09-10T00:27:17.717Z,109.88
2022-09-10T00:29:48.402Z,111.03
2022-09-10T00:32:17.694Z,104.35
2022-09-10T00:34:47.157Z,99.50
2022-09-10T00:37:16.584Z,111.63
2022-09-10T00:39:45.813Z,111.90
2022-09-10T00:42:15.781Z,109.80
2022-09-10T00:45:04.996Z,106.05
2022-09-10T00:47:39.418Z,108.65
2022-09-10T00:50:20.234Z,115.65
2022-09-10T00:52:51.271Z,107.20
2022-09-10T00:55:22.141Z,105.68
2022-09-10T00:57:55.952Z,102.25
2022-09-10T01:00:26.854Z,99.30
2022-09-10T01:02:56.329Z,109.30
2022-09-10T01:05:27.126Z,92.72
2022-09-10T01:07:57.070Z,93.13
2022-09-10T01:10:30.756Z,91.88
2022-09-10T01:13:26.679Z,94.82
2022-09-10T01:16:04.265Z,91.18
2022-09-10T01:18:50.252Z,88.78
2022-09-10T01:21:25.925Z,84.15
2022-09-10T01:24:44.499Z,94.18
2022-09-10T01:27:41.503Z,78.28
2022-09-10T01:30:18.135Z,80.20
2022-09-10T01:33:05.691Z,82.80
2022-09-10T01:35:46.020Z,87.32
2022-09-10T01:38:22.109Z,95.07
2022-09-10T01:40:55.156Z,97.78
2022-09-10T01:43:28.055Z,93.25
2022-09-10T01:46:19.541Z,97.38
2022-09-10T01:49:18.920Z,94.20
2022-09-10T01:52:17.934Z,83.18
2022-09-10T01:55:00.333Z,92.30
2022-09-10T01:57:41.747Z,81.82
2022-09-10T02:00:15.868Z,85.97
2022-09-10T02:02:53.316Z,93.18
2022-09-10T02:05:25.088Z,100.75
2022-09-10T02:08:03.813Z,92.47
2022-09-10T02:10:33.630Z,87.50
2022-09-10T02:13:03.092Z,95.47
2022-09-10T02:15:46.344Z,87.27
2022-09-10T02:18:23.764Z,81.85
2022-09-10T02:20:57.549Z,94.45
2022-09-10T02:23:33.127Z,98.40
2022-09-10T02:26:02.683Z,85.45
2022-09-10T02:28:32.672Z,86.15
2022-09-10T02:31:03.635Z,82.55
2022-09-10T02:33:32.901Z,85.60
2022-09-10T02:36:04.968Z,80.72
2022-09-10T02:38:35.795Z,86.63
2022-09-10T02:41:05.164Z,87.95
2022-09-10T02:43:38.373Z,89.30
2022-09-10T02:46:09.428Z,89.05
2022-09-10T02:48:40.379Z,82.10
2022-09-10T02:51:12.250Z,92.05
2022-09-10T02:53:42.014Z,84.40
2022-09-10T02:56:12.506Z,83.70
2022-09-10T02:58:41.828Z,89.35
2022-09-10T03:01:15.939Z,83.72
2022-09-10T03:03:51.995Z,88.70
2022-09-10T03:06:22.418Z,73.63
2022-09-10T03:08:52.374Z,82.40
2022-09-10T03:11:24.106Z,84.68
2022-09-10T03:13:55.143Z,85.38
2022-09-10T03:16:26.940Z,73.38
2022-09-10T03:18:57.816Z,84.03
2022-09-10T03:21:27.033Z,77.45
2022-09-10T03:23:59.617Z,90.15
2022-09-10T03:26:32.006Z,86.68
2022-09-10T03:29:01.566Z,75.28
2022-09-10T03:31:36.128Z,79.63
2022-09-10T03:34:06.283Z,82.13
2022-09-10T03:36:35.511Z,76.75
2022-09-10T03:39:07.219Z,89.80
2022-09-10T03:41:37.557Z,71.68
2022-09-10T03:44:07.290Z,74.15
2022-09-10T03:46:38.373Z,80.45
2022-09-10T03:49:07.731Z,66.95
2022-09-10T03:51:37.577Z,71.88
2022-09-10T03:54:07.470Z,76.10
2022-09-10T03:56:36.923Z,81.75
2022-09-10T03:59:06.137Z,69.05
2022-09-10T04:01:35.363Z,74.95
2022-09-10T04:04:09.418Z,65.68
2022-09-10T04:06:40.682Z,67.90
2022-09-10T04:09:10.185Z,62.17
2022-09-10T04:11:39.773Z,66.43
2022-09-10T04:14:09.271Z,81.97
2022-09-10T04:16:41.844Z,78.25
2022-09-10T04:19:15.911Z,64.75
2022-09-10T04:21:45.463Z,68.95
2022-09-10T04:24:15.046Z,77.65
2022-09-10T04:26:44.650Z,67.78
2022-09-10T04:29:16.286Z,65.82
2022-09-10T04:31:46.877Z,70.22
2022-09-10T04:34:20.355Z,63.38
2022-09-10T04:36:50.048Z,71.88
2022-09-10T04:39:20.201Z,61.80
2022-09-10T04:41:52.237Z,65.10
2022-09-10T04:44:21.435Z,68.75
2022-09-10T04:46:50.689Z,63.83
2022-09-10T04:49:21.260Z,53.33
2022-09-10T04:51:50.569Z,58.45
2022-09-10T04:54:20.883Z,69.35
2022-09-10T04:56:52.340Z,62.22
2022-09-10T04:59:21.697Z,59.15
2022-09-10T05:01:51.585Z,64.13
2022-09-10T05:04:22.593Z,61.78
2022-09-10T05:06:53.443Z,65.80
2022-09-10T05:09:22.884Z,59.00
2022-09-10T05:11:52.333Z,57.03
2022-09-10T05:14:23.333Z,68.20
2022-09-10T05:16:53.120Z,65.18
2022-09-10T05:19:24.553Z,63.22
2022-09-10T05:22:00.154Z,61.75
2022-09-10T05:24:29.398Z,61.47
2022-09-10T05:26:59.638Z,52.97
2022-09-10T05:29:28.977Z,61.03
2022-09-10T05:31:58.265Z,61.92
2022-09-10T05:34:29.720Z,56.58
2022-09-10T05:36:59.664Z,59.70
2022-09-10T05:39:28.969Z,56.83
2022-09-10T05:42:00.587Z,47.28
2022-09-10T05:44:29.833Z,62.67
2022-09-10T05:46:59.122Z,67.82
2022-09-10T05:49:31.521Z,65.65
2022-09-10T05:52:02.732Z,56.88
2022-09-10T05:54:32.072Z,58.38
2022-09-10T05:57:01.659Z,56.90
2022-09-10T05:59:32.079Z,58.67
2022-09-10T06:02:01.720Z,48.13
2022-09-10T06:04:33.685Z,51.55
2022-09-10T06:07:04.959Z,56.38
2022-09-10T06:09:34.304Z,47.80
2022-09-10T06:12:17.438Z,41.17
2022-09-10T06:14:46.826Z,49.45
2022-09-10T06:17:17.839Z,52.30
2022-09-10T06:19:52.113Z,44.45
2022-09-10T06:22:21.767Z,42.00
2022-09-10T06:24:53.946Z,36.97
2022-09-10T06:27:24.398Z,42.38
2022-09-10T06:29:54.660Z,47.58
2022-09-10T06:32:24.058Z,58.15
2022-09-10T06:34:54.704Z,54.45
2022-09-10T06:37:27.113Z,48.92
2022-09-10T06:39:57.821Z,65.32
2022-09-10T06:42:27.990Z,61.92
2022-09-10T06:45:17.716Z,53.75
2022-09-10T06:51:02.195Z,48.00
2022-09-10T06:53:36.898Z,64.80
2022-09-10T06:56:09.476Z,77.97
2022-09-10T06:58:40.533Z,68.90
2022-09-10T07:01:14.933Z,74.07
2022-09-10T07:03:48.474Z,92.97
2022-09-10T07:06:20.228Z,77.32
2022-09-10T07:08:57.598Z,79.28
2022-09-10T07:11:30.638Z,86.65
2022-09-10T07:14:01.600Z,89.23
2022-09-10T07:16:33.933Z,88.53
2022-09-10T07:19:03.350Z,98.05
2022-09-10T07:21:43.122Z,93.35
2022-09-10T07:24:20.289Z,95.38
2022-09-10T07:27:11.191Z,88.60
2022-09-10T07:29:43.713Z,92.18
2022-09-10T07:32:17.220Z,91.80
2022-09-10T07:34:47.353Z,88.95
2022-09-10T07:37:19.201Z,92.00
2022-09-10T07:39:49.865Z,91.45
2022-09-10T07:42:19.634Z,99.45
2022-09-10T07:44:49.661Z,102.78
2022-09-10T07:47:21.098Z,144.65
2022-09-10T07:49:52.611Z,113.50
2022-09-10T07:52:23.167Z,216.88
2022-09-10T07:54:56.334Z,273.13
2022-09-10T07:57:25.579Z,289.10
2022-09-10T07:59:56.239Z,272.58
2022-09-10T08:02:27.282Z,272.88
2022-09-10T08:05:04.388Z,325.45
2022-09-10T08:07:37.018Z,309.40
2022-09-10T08:10:10.595Z,316.08
2022-09-10T08:12:43.927Z,279.25
2022-09-10T08:15:15.152Z,326.67
2022-09-10T08:17:46.125Z,320.80
2022-09-10T08:20:15.415Z,363.58
2022-09-10T08:22:50.638Z,333.25
2022-09-10T08:25:21.637Z,378.40
2022-09-10T08:27:51.293Z,381.85
2022-09-10T08:30:20.444Z,389.30
2022-09-10T08:32:50.309Z,418.75
2022-09-10T08:35:22.501Z,385.17
2022-09-10T08:37:53.547Z,415.55
2022-09-10T08:40:23.760Z,424.55
2022-09-10T08:42:54.037Z,455.00
2022-09-10T08:45:29.544Z,414.83
2022-09-10T08:48:07.247Z,411.63
2022-09-10T08:50:46.142Z,427.15
2022-09-10T08:53:28.323Z,460.25
2022-09-10T08:56:05.350Z,445.48
2022-09-10T08:58:43.553Z,445.08
2022-09-10T09:01:25.317Z,441.02
2022-09-10T09:03:58.464Z,458.77
2022-09-10T09:06:36.554Z,470.50
2022-09-10T09:09:11.237Z,445.08
2022-09-10T09:11:56.328Z,442.15
2022-09-10T09:14:39.649Z,437.30
2022-09-10T09:17:38.229Z,437.67
2022-09-10T09:20:18.590Z,442.58
2022-09-10T09:23:05.966Z,401.00
2022-09-10T09:25:51.204Z,361.17
2022-09-10T09:28:32.724Z,309.98
2022-09-10T09:31:09.486Z,316.67
2022-09-10T09:33:42.042Z,261.88
2022-09-10T09:36:18.182Z,258.85
2022-09-10T09:38:50.983Z,214.18
2022-09-10T09:41:32.180Z,233.05
2022-09-10T09:44:08.028Z,284.35
2022-09-10T09:46:37.307Z,225.95
2022-09-10T09:49:15.907Z,231.60
2022-09-10T09:51:50.093Z,198.70
2022-09-10T09:57:20.709Z,201.35
2022-09-10T09:59:51.978Z,175.75
2022-09-10T10:02:25.215Z,212.32
2022-09-10T10:05:07.202Z,247.27
2022-09-10T10:07:37.526Z,213.77
2022-09-10T10:10:09.234Z,228.70
2022-09-10T10:12:49.653Z,219.88
2022-09-10T10:15:38.145Z,221.88
2022-09-10T10:18:32.822Z,177.15
2022-09-10T10:21:20.100Z,185.07
2022-09-10T10:23:49.812Z,226.30
2022-09-10T10:26:30.528Z,263.50
2022-09-10T10:29:06.419Z,222.30
2022-09-10T10:31:42.320Z,188.48
2022-09-10T10:34:42.263Z,249.30
2022-09-10T10:37:18.239Z,221.88
2022-09-10T10:40:14.526Z,192.65
2022-09-10T10:42:54.264Z,217.90
2022-09-10T10:45:52.549Z,206.15
2022-09-10T10:48:36.522Z,192.60
2022-09-10T10:51:17.351Z,216.60
2022-09-10T10:54:28.790Z,227.60
2022-09-10T10:57:13.126Z,188.32
2022-09-10T10:59:55.857Z,220.18
2022-09-10T11:05:20.346Z,251.15
2022-09-10T11:07:50.200Z,241.18
2022-09-10T11:10:25.967Z,260.92
2022-09-10T11:13:06.339Z,264.17
2022-09-10T11:15:44.644Z,257.60
2022-09-10T11:18:21.263Z,235.63
2022-09-10T11:21:06.304Z,225.23
2022-09-10T11:23:45.309Z,202.95
2022-09-10T11:26:22.880Z,197.65
2022-09-10T11:29:01.631Z,201.50
2022-09-10T11:31:36.730Z,207.38
2022-09-10T11:34:16.101Z,190.02
2022-09-10T11:36:50.682Z,265.23
2022-09-10T11:39:26.855Z,268.38
2022-09-10T11:41:59.462Z,272.75
2022-09-10T11:44:49.250Z,285.73
2022-09-10T11:47:25.767Z,279.02
2022-09-10T11:50:04.703Z,190.68
2022-09-10T11:52:35.368Z,223.13
2022-09-10T11:55:08.590Z,231.23
2022-09-10T11:57:49.437Z,209.57
2022-09-10T12:00:20.536Z,208.80
2022-09-10T12:03:36.083Z,202.80
2022-09-10T12:06:17.992Z,253.00
2022-09-10T12:09:01.730Z,216.07
2022-09-10T12:11:39.463Z,245.55
2022-09-10T12:14:14.847Z,255.77
2022-09-10T12:16:52.114Z,224.27
2022-09-10T12:19:29.377Z,264.23
2022-09-10T12:22:03.402Z,241.05
2022-09-10T12:24:34.859Z,277.02
2022-09-10T12:27:06.784Z,242.05
2022-09-10T12:29:40.314Z,356.58
2022-09-10T12:32:29.799Z,362.27
2022-09-10T12:35:46.847Z,378.60
2022-09-10T12:39:13.211Z,389.50
2022-09-10T12:42:04.143Z,433.05
2022-09-10T12:44:57.659Z,437.38
2022-09-10T12:47:53.988Z,444.88
2022-09-10T12:50:46.539Z,446.98
2022-09-10T12:57:00.679Z,448.70
2022-09-10T13:00:14.282Z,438.52
2022-09-10T13:02:53.918Z,461.52
2022-09-10T13:05:32.448Z,444.42
2022-09-10T13:08:19.480Z,423.33
2022-09-10T13:11:12.129Z,438.40
2022-09-10T13:16:20.413Z,398.95
2022-09-10T13:18:55.059Z,416.95
2022-09-10T13:21:55.164Z,399.38
2022-09-10T13:25:03.125Z,421.15
2022-09-10T13:27:41.711Z,388.98
2022-09-10T13:30:19.973Z,395.20
2022-09-10T13:32:55.288Z,423.38
2022-09-10T13:36:11.985Z,394.17
2022-09-10T13:39:32.210Z,393.80
2022-09-10T13:42:35.437Z,381.95
2022-09-10T13:45:24.456Z,358.52
2022-09-10T13:48:02.199Z,371.83
2022-09-10T13:50:40.386Z,383.05
2022-09-10T13:53:14.677Z,361.30
2022-09-10T13:55:56.898Z,352.67
2022-09-10T13:58:29.949Z,359.85
2022-09-10T14:01:02.914Z,328.88
2022-09-10T14:03:36.707Z,317.98
2022-09-10T14:06:09.200Z,259.35
2022-09-10T14:08:44.117Z,250.27
2022-09-10T14:11:20.229Z,238.13
2022-09-10T14:13:55.579Z,274.33
2022-09-10T14:16:32.005Z,254.93
2022-09-10T14:19:06.359Z,291.08
2022-09-10T14:21:36.241Z,198.40
2022-09-10T14:24:05.927Z,341.27
2022-09-10T14:26:35.771Z,279.88
2022-09-10T14:29:25.051Z,229.60
2022-09-10T14:31:54.471Z,310.63
2022-09-10T14:34:33.833Z,290.38
2022-09-10T14:37:24.247Z,226.23
2022-09-10T14:39:56.653Z,282.27
2022-09-10T14:42:34.156Z,261.55
2022-09-10T14:45:04.232Z,241.45
2022-09-10T14:47:37.198Z,241.50
2022-09-10T14:50:28.451Z,310.42
2022-09-10T14:52:57.972Z,225.55
2022-09-10T14:55:32.045Z,183.43
2022-09-10T14:58:01.494Z,398.90
2022-09-10T15:00:31.346Z,360.75
2022-09-10T15:03:00.767Z,312.38
2022-09-10T15:05:30.912Z,268.27
2022-09-10T15:08:00.142Z,227.73
2022-09-10T15:10:30.863Z,244.75
2022-09-10T15:13:01.099Z,292.88
2022-09-10T15:15:31.135Z,235.73
2022-09-10T15:18:00.284Z,341.35
2022-09-10T15:20:29.382Z,291.95
2022-09-10T15:22:58.506Z,388.10
2022-09-10T15:25:39.032Z,315.35
2022-09-10T15:28:08.680Z,245.70
2022-09-10T15:30:37.869Z,317.98
2022-09-10T15:33:08.106Z,307.05
2022-09-10T15:35:39.553Z,282.15
2022-09-10T15:38:08.956Z,259.50
2022-09-10T15:40:39.486Z,259.73
2022-09-10T15:43:08.820Z,277.55
2022-09-10T15:45:39.923Z,351.45
2022-09-10T15:48:09.114Z,241.23
2022-09-10T15:50:39.490Z,278.50
2022-09-10T15:53:11.907Z,312.40
2022-09-10T15:55:42.933Z,276.48
2022-09-10T15:58:12.666Z,297.52
2022-09-10T16:00:42.044Z,258.00
2022-09-10T16:03:11.168Z,315.13
2022-09-10T16:05:40.369Z,300.15
2022-09-10T16:08:09.630Z,274.70
2022-09-10T16:10:42.202Z,271.38
2022-09-10T16:13:11.408Z,286.60
2022-09-10T16:15:40.747Z,300.42
2022-09-10T16:18:09.931Z,302.27
2022-09-10T16:20:40.001Z,389.13
2022-09-10T16:23:09.209Z,347.10
2022-09-10T16:25:39.443Z,288.85
2022-09-10T16:28:10.043Z,292.48
2022-09-10T16:30:39.231Z,316.45
2022-09-10T16:33:09.713Z,382.83
2022-09-10T16:35:39.088Z,261.15
2022-09-10T16:38:09.203Z,285.63
2022-09-10T16:40:38.406Z,290.17
2022-09-10T16:43:07.738Z,291.08
2022-09-10T16:45:38.290Z,294.40
2022-09-10T16:48:07.656Z,262.13
2022-09-10T16:50:36.707Z,232.77
2022-09-10T16:53:10.151Z,228.40
2022-09-10T16:55:41.113Z,242.05
2022-09-10T16:58:11.041Z,255.45
2022-09-10T17:00:42.816Z,273.52
2022-09-10T17:03:12.022Z,237.45
2022-09-10T17:05:41.523Z,256.65
2022-09-10T17:08:11.064Z,266.35
2022-09-10T17:10:40.635Z,245.77
2022-09-10T17:13:11.301Z,251.63
2022-09-10T17:15:43.323Z,262.42
2022-09-10T17:18:13.131Z,260.50
2022-09-10T17:20:43.414Z,234.63
2022-09-10T17:23:13.907Z,277.08
2022-09-10T17:25:43.535Z,232.35
2022-09-10T17:28:12.971Z,280.77
2022-09-10T17:30:43.767Z,258.65
2022-09-10T17:33:12.987Z,256.63
2022-09-10T17:35:42.164Z,266.67
2022-09-10T17:38:11.323Z,243.15
2022-09-10T17:40:40.506Z,255.45
2022-09-10T17:43:09.958Z,270.25
2022-09-10T17:45:39.298Z,245.48
2022-09-10T17:48:10.019Z,292.65
2022-09-10T17:50:45.755Z,262.88
2022-09-10T17:53:14.992Z,315.98
2022-09-10T17:55:44.418Z,232.48
2022-09-10T17:58:16.765Z,355.08
2022-09-10T18:00:48.554Z,252.70
2022-09-10T18:03:19.261Z,271.40
2022-09-10T18:05:48.428Z,215.93
2022-09-10T18:08:17.813Z,293.45
2022-09-10T18:10:48.013Z,210.00
2022-09-10T18:13:19.550Z,199.55
2022-09-10T18:15:48.934Z,286.33
2022-09-10T18:18:19.667Z,262.70
2022-09-10T18:20:48.845Z,238.65
2022-09-10T18:23:19.497Z,194.07
2022-09-10T18:25:50.084Z,223.65
2022-09-10T18:28:19.350Z,183.23
2022-09-10T18:30:48.794Z,279.60
2022-09-10T18:33:19.781Z,266.98
2022-09-10T18:35:49.403Z,234.57
2022-09-10T18:38:18.657Z,169.48
2022-09-10T18:40:47.865Z,153.02
2022-09-10T18:43:17.092Z,205.27
2022-09-10T18:45:46.453Z,159.93
2022-09-10T18:48:15.587Z,193.27
2022-09-10T18:50:47.423Z,288.15
2022-09-10T18:53:17.461Z,293.47
2022-09-10T18:55:47.082Z,211.05
2022-09-10T18:58:16.368Z,140.48
2022-09-10T19:00:45.492Z,162.57
2022-09-10T19:03:15.158Z,184.40
2022-09-10T19:05:46.008Z,175.05
2022-09-10T19:08:18.111Z,166.75
2022-09-10T19:10:47.370Z,164.23
2022-09-10T19:13:16.735Z,149.18
2022-09-10T19:15:54.691Z,155.40
2022-09-10T19:18:23.892Z,206.88
2022-09-10T19:20:56.054Z,160.45
2022-09-10T19:23:25.808Z,180.60
2022-09-10T19:25:56.920Z,209.10
2022-09-10T19:28:26.492Z,161.63
2022-09-10T19:30:55.973Z,243.85
2022-09-10T19:33:25.311Z,156.48
2022-09-10T19:35:56.756Z,151.48
2022-09-10T19:38:37.587Z,208.10
2022-09-10T19:41:09.982Z,144.57
2022-09-10T19:43:40.202Z,151.88
2022-09-10T19:46:12.085Z,146.98
2022-09-10T19:48:42.329Z,138.50
2022-09-10T19:51:15.961Z,144.35
2022-09-10T19:53:45.403Z,157.82
2022-09-10T19:56:20.653Z,232.38
2022-09-10T19:58:52.575Z,219.80
2022-09-10T20:01:24.776Z,136.30
2022-09-10T20:03:56.208Z,139.48
2022-09-10T20:06:27.558Z,189.13
2022-09-10T20:08:57.122Z,188.73
2022-09-10T20:11:28.801Z,164.88
2022-09-10T20:14:00.996Z,200.02
2022-09-10T20:16:31.511Z,196.52
2022-09-10T20:19:04.077Z,130.38
2022-09-10T20:21:35.545Z,131.93
2022-09-10T20:24:07.174Z,140.98
2022-09-10T20:26:41.234Z,171.73
2022-09-10T20:29:14.706Z,135.82
2022-09-10T20:31:46.393Z,137.93
2022-09-10T20:34:19.559Z,116.50
2022-09-10T20:36:52.496Z,156.18
2022-09-10T20:39:25.453Z,137.35
2022-09-10T20:41:55.167Z,130.65
2022-09-10T20:44:24.676Z,146.63
2022-09-10T20:46:54.127Z,128.10
2022-09-10T20:49:23.356Z,132.25
2022-09-10T20:51:54.025Z,174.25
2022-09-10T20:54:23.632Z,142.48
2022-09-10T20:56:53.021Z,128.65
2022-09-10T20:59:26.839Z,111.90
2022-09-10T21:01:57.038Z,128.93
2022-09-10T21:04:26.552Z,129.93
2022-09-10T21:06:57.201Z,120.00
2022-09-10T21:09:26.636Z,121.72
2022-09-10T21:11:56.583Z,120.28
2022-09-10T21:14:27.303Z,139.13
2022-09-10T21:16:56.607Z,119.43
2022-09-10T21:19:26.662Z,122.00
2022-09-10T21:21:57.384Z,120.05
2022-09-10T21:24:26.882Z,133.38
2022-09-10T21:26:56.461Z,129.25
2022-09-10T21:29:25.641Z,126.20
2022-09-10T21:31:56.920Z,138.68
2022-09-10T21:34:26.144Z,134.63
2022-09-10T21:36:56.917Z,133.82
2022-09-10T21:39:26.473Z,119.65
2022-09-10T21:41:55.701Z,119.90
2022-09-10T21:44:25.557Z,117.88
2022-09-10T21:46:55.076Z,123.43
2022-09-10T21:49:24.262Z,135.20
2022-09-10T21:51:53.505Z,136.93
2022-09-10T21:54:24.418Z,128.07
2022-09-10T21:56:54.030Z,131.55
2022-09-10T21:59:25.810Z,119.43
2022-09-10T22:01:55.118Z,122.83
2022-09-10T22:04:24.415Z,102.50
2022-09-10T22:06:54.513Z,118.28
2022-09-10T22:09:26.391Z,113.55
2022-09-10T22:11:59.292Z,108.40
2022-09-10T22:14:28.629Z,115.20
2022-09-10T22:16:59.115Z,128.90
2022-09-10T22:19:28.492Z,118.45
2022-09-10T22:21:57.919Z,124.35
2022-09-10T22:24:29.727Z,125.78
2022-09-10T22:26:59.346Z,122.13
2022-09-10T22:29:29.351Z,114.00
2022-09-10T22:31:58.543Z,107.93
2022-09-10T22:34:27.917Z,108.03
2022-09-10T22:36:57.060Z,110.93
2022-09-10T22:39:29.832Z,106.70
2022-09-10T22:42:01.926Z,107.88
2022-09-10T22:44:31.617Z,118.03
2022-09-10T22:47:00.926Z,104.25
2022-09-10T22:49:30.099Z,107.05
2022-09-10T22:51:59.503Z,112.50
2022-09-10T22:54:32.519Z,97.00
2022-09-10T22:57:01.784Z,113.07
2022-09-10T22:59:32.704Z,115.95
2022-09-10T23:02:01.961Z,116.65
2022-09-10T23:04:31.331Z,99.88
2022-09-10T23:07:01.036Z,105.65
2022-09-10T23:09:31.615Z,106.43
2022-09-10T23:12:01.386Z,112.32
2022-09-10T23:14:30.789Z,106.68
2022-09-10T23:16:59.942Z,98.10
2022-09-10T23:19:30.796Z,95.63
2022-09-10T23:21:59.981Z,94.38
2022-09-10T23:24:31.094Z,91.65
2022-09-10T23:27:03.874Z,97.38
2022-09-10T23:29:33.212Z,102.72
2022-09-10T23:32:02.756Z,99.88
2022-09-10T23:34:32.133Z,87.93
2022-09-10T23:37:01.412Z,108.72
2022-09-10T23:39:32.323Z,111.82
2022-09-10T23:42:01.483Z,103.25
2022-09-10T23:44:31.132Z,108.03
2022-09-10T23:47:02.918Z,96.72
2022-09-10T23:49:32.323Z,102.70
2022-09-10T23:52:01.497Z,97.38
2022-09-10T23:54:32.146Z,100.53
2022-09-10T23:57:02.930Z,90.95
2022-09-10T23:59:32.078Z,103.43
